Time;durP1;ratioP1;P1;durP2;ratioP2;P2;SDS_P1;SDS_P2;PMS_P1;PMS_P2;Temp;Humidity;BMP_temperature;BMP_pressure;BME280_temperature;BME280_humidity;BME280_pressure;Samples;Min_cycle;Max_cycle;Signal;HPM_P1;HPM_P2
2023/12/16 00:02:26;;;;;;;45.53;42.88;;;;;;;;;;5042622;28;20049;-76
2023/12/16 00:04:57;;;;;;;24.23;22.55;;;;;;;;;;5044298;28;20419;-77
2023/12/16 00:07:27;;;;;;;18.98;17.92;;;;;;;;;;5042736;28;20041;-76
2023/12/16 00:09:58;;;;;;;20.92;19.83;;;;;;;;;;5042952;28;20052;-76
2023/12/16 00:12:29;;;;;;;16.77;15.75;;;;;;;;;;5040909;28;20060;-76
2023/12/16 00:15:00;;;;;;;20.42;19.33;;;;;;;;;;5041708;28;20071;-77
2023/12/16 00:17:30;;;;;;;18.42;17.42;;;;;;;;;;5042483;28;20419;-77
2023/12/16 00:20:01;;;;;;;17.60;16.70;;;;;;;;;;5041247;28;20052;-77
2023/12/16 00:22:31;;;;;;;18.95;17.77;;;;;;;;;;5041588;28;20052;-78
2023/12/16 00:25:02;;;;;;;17.98;16.95;;;;;;;;;;5024686;28;20057;-76
2023/12/16 00:27:32;;;;;;;16.88;15.98;;;;;;;;;;5042188;28;20679;-77
2023/12/16 00:30:02;;;;;;;18.88;17.88;;;;;;;;;;5042078;28;20099;-77
2023/12/16 00:32:33;;;;;;;23.77;22.45;;;;;;;;;;5042571;28;20048;-77
2023/12/16 00:35:04;;;;;;;24.90;23.50;;;;;;;;;;5040714;28;20048;-75
2023/12/16 00:37:35;;;;;;;24.75;23.42;;;;;;;;;;5042238;28;20060;-77
2023/12/16 00:40:07;;;;;;;26.35;24.92;;;;;;;;;;5040445;28;20060;-78
2023/12/16 00:42:38;;;;;;;26.05;24.73;;;;;;;;;;5043245;28;20052;-77
2023/12/16 00:45:09;;;;;;;17.58;16.50;;;;;;;;;;5041915;28;20041;-75
2023/12/16 00:47:40;;;;;;;21.85;20.55;;;;;;;;;;5043430;28;20492;-76
2023/12/16 00:50:12;;;;;;;21.10;19.88;;;;;;;;;;5042527;28;20049;-76
2023/12/16 00:52:43;;;;;;;25.40;24.02;;;;;;;;;;5040316;28;20068;-79
2023/12/16 00:55:14;;;;;;;27.48;26.08;;;;;;;;;;5042467;28;20053;-77
2023/12/16 00:57:45;;;;;;;27.05;25.30;;;;;;;;;;5041569;28;20041;-77
2023/12/16 01:00:15;;;;;;;25.50;24.08;;;;;;;;;;5041701;28;20053;-77
2023/12/16 01:02:48;;;;;;;17.92;16.83;;;;;;;;;;5041700;28;20576;-78
2023/12/16 01:05:18;;;;;;;15.25;14.40;;;;;;;;;;5042277;28;20056;-77
2023/12/16 01:07:49;;;;;;;15.02;14.18;;;;;;;;;;5042259;28;20056;-77
2023/12/16 01:10:19;;;;;;;40.13;37.78;;;;;;;;;;5041814;28;20052;-76
2023/12/16 01:12:50;;;;;;;20.33;19.25;;;;;;;;;;5039577;28;20072;-78
2023/12/16 01:15:21;;;;;;;15.38;14.43;;;;;;;;;;5042271;28;20076;-75
2023/12/16 01:17:54;;;;;;;62.40;58.60;;;;;;;;;;5041216;28;20060;-78
2023/12/16 01:20:25;;;;;;;59.30;55.75;;;;;;;;;;5039212;28;20407;-80
2023/12/16 01:22:54;;;;;;;41.17;38.72;;;;;;;;;;5038124;28;20822;-78
2023/12/16 01:25:27;;;;;;;30.05;28.40;;;;;;;;;;5038416;28;20222;-77
2023/12/16 01:27:58;;;;;;;55.03;51.72;;;;;;;;;;5040940;28;20056;-76
2023/12/16 01:30:29;;;;;;;35.00;33.10;;;;;;;;;;5040406;28;20776;-76
2023/12/16 01:32:59;;;;;;;42.22;39.78;;;;;;;;;;5040612;28;20063;-77
2023/12/16 01:35:29;;;;;;;30.65;28.92;;;;;;;;;;5038927;28;20055;-74
2023/12/16 01:37:59;;;;;;;35.92;33.42;;;;;;;;;;5037903;28;20044;-75
2023/12/16 01:40:30;;;;;;;38.33;36.15;;;;;;;;;;5038084;28;20056;-75
2023/12/16 01:43:08;;;;;;;24.40;23.10;;;;;;;;;;5036988;28;20045;-78
2023/12/16 01:45:38;;;;;;;25.15;23.85;;;;;;;;;;5038177;28;20061;-74
2023/12/16 01:48:10;;;;;;;22.88;21.23;;;;;;;;;;5038416;28;20049;-76
2023/12/16 01:50:42;;;;;;;20.77;19.65;;;;;;;;;;5037582;28;20052;-76
2023/12/16 01:53:12;;;;;;;25.35;24.02;;;;;;;;;;5038932;28;20044;-75
2023/12/16 01:55:43;;;;;;;24.60;23.35;;;;;;;;;;5042426;28;20055;-75
2023/12/16 01:58:12;;;;;;;23.10;21.88;;;;;;;;;;5042077;28;20044;-81
2023/12/16 02:00:46;;;;;;;17.70;16.75;;;;;;;;;;5041381;28;20104;-76
2023/12/16 02:03:19;;;;;;;18.02;17.00;;;;;;;;;;5042265;28;20053;-76
2023/12/16 02:05:50;;;;;;;18.80;17.60;;;;;;;;;;5042333;28;20075;-76
2023/12/16 02:08:19;;;;;;;20.30;19.23;;;;;;;;;;5041513;28;20053;-74
2023/12/16 02:10:50;;;;;;;17.92;16.90;;;;;;;;;;5041115;28;20057;-75
2023/12/16 02:13:23;;;;;;;15.70;14.68;;;;;;;;;;5041750;28;20071;-75
2023/12/16 02:15:55;;;;;;;15.75;14.95;;;;;;;;;;5041808;28;20534;-76
2023/12/16 02:18:26;;;;;;;21.98;20.55;;;;;;;;;;5042097;28;20053;-75
2023/12/16 02:20:56;;;;;;;20.17;19.02;;;;;;;;;;5041254;28;20060;-75
2023/12/16 02:23:27;;;;;;;33.85;31.98;;;;;;;;;;5041026;28;20899;-75
2023/12/16 02:25:57;;;;;;;28.70;27.08;;;;;;;;;;5040505;28;20071;-76
2023/12/16 02:28:28;;;;;;;24.23;22.92;;;;;;;;;;5041425;28;20060;-74
2023/12/16 02:30:58;;;;;;;18.98;18.00;;;;;;;;;;5040875;28;20052;-74
2023/12/16 02:33:29;;;;;;;20.33;19.15;;;;;;;;;;5044137;28;20064;-76
2023/12/16 02:36:01;;;;;;;24.40;22.92;;;;;;;;;;5042584;28;20053;-75
2023/12/16 02:38:31;;;;;;;25.80;24.25;;;;;;;;;;5043397;28;20530;-74
2023/12/16 02:41:01;;;;;;;36.72;34.75;;;;;;;;;;5043314;28;20041;-74
2023/12/16 02:43:31;;;;;;;34.53;32.50;;;;;;;;;;5043279;28;20049;-75
2023/12/16 02:46:02;;;;;;;18.88;17.70;;;;;;;;;;5043673;28;20045;-76
2023/12/16 02:48:33;;;;;;;15.00;14.20;;;;;;;;;;5044173;28;20049;-75
2023/12/16 02:51:03;;;;;;;12.90;12.13;;;;;;;;;;5041872;28;20061;-75
2023/12/16 02:53:33;;;;;;;14.32;13.52;;;;;;;;;;5043555;28;20052;-75
2023/12/16 02:56:03;;;;;;;46.30;43.70;;;;;;;;;;5044001;28;20495;-75
2023/12/16 02:58:33;;;;;;;38.97;36.97;;;;;;;;;;5043579;28;20052;-74
2023/12/16 03:01:04;;;;;;;39.90;37.83;;;;;;;;;;5041971;28;20407;-76
2023/12/16 03:03:39;;;;;;;37.80;35.88;;;;;;;;;;5043492;28;20056;-75
2023/12/16 03:06:10;;;;;;;35.08;33.20;;;;;;;;;;5043072;28;20419;-74
2023/12/16 03:08:39;;;;;;;37.55;35.53;;;;;;;;;;5044095;28;20048;-74
2023/12/16 03:11:11;;;;;;;41.33;38.85;;;;;;;;;;5042900;28;20049;-75
2023/12/16 03:13:41;;;;;;;28.13;26.55;;;;;;;;;;5041561;28;20076;-76
2023/12/16 03:16:12;;;;;;;20.58;19.27;;;;;;;;;;5043071;28;20060;-75
2023/12/16 03:18:42;;;;;;;18.92;17.90;;;;;;;;;;5043765;28;20496;-75
2023/12/16 03:21:13;;;;;;;19.60;18.27;;;;;;;;;;5043184;28;20053;-76
2023/12/16 03:23:44;;;;;;;16.98;16.02;;;;;;;;;;5042984;28;20068;-75
2023/12/16 03:26:14;;;;;;;13.95;13.05;;;;;;;;;;5043046;28;20499;-76
2023/12/16 03:28:44;;;;;;;14.18;13.35;;;;;;;;;;5042726;28;20049;-76
2023/12/16 03:31:15;;;;;;;11.55;10.85;;;;;;;;;;5042186;28;20415;-75
2023/12/16 03:33:46;;;;;;;15.15;13.93;;;;;;;;;;5042326;28;20052;-75
2023/12/16 03:36:17;;;;;;;14.98;14.15;;;;;;;;;;5043120;28;20060;-74
2023/12/16 03:38:47;;;;;;;11.77;11.07;;;;;;;;;;5042333;28;20419;-76
2023/12/16 03:41:17;;;;;;;13.60;12.80;;;;;;;;;;5042487;28;20049;-74
2023/12/16 03:43:47;;;;;;;13.18;12.35;;;;;;;;;;5042501;28;20506;-74
2023/12/16 03:46:18;;;;;;;11.63;11.00;;;;;;;;;;5042487;28;20041;-75
2023/12/16 03:48:49;;;;;;;18.17;17.27;;;;;;;;;;5042655;28;20037;-76
2023/12/16 03:51:21;;;;;;;20.45;19.42;;;;;;;;;;5042042;28;20116;-75
2023/12/16 03:53:51;;;;;;;17.60;16.50;;;;;;;;;;5041967;28;20858;-76
2023/12/16 03:56:21;;;;;;;18.65;17.50;;;;;;;;;;5041866;28;20053;-74
2023/12/16 03:58:55;;;;;;;32.30;30.27;;;;;;;;;;5042160;28;20052;-76
2023/12/16 04:01:25;;;;;;;19.00;17.73;;;;;;;;;;5042028;28;20060;-75
2023/12/16 04:03:55;;;;;;;18.33;17.10;;;;;;;;;;5042001;28;20045;-76
2023/12/16 04:06:26;;;;;;;14.60;13.50;;;;;;;;;;5041863;28;20491;-77
2023/12/16 04:08:56;;;;;;;12.27;11.57;;;;;;;;;;5042325;28;20056;-78
2023/12/16 04:11:27;;;;;;;27.33;25.48;;;;;;;;;;5042359;28;20053;-73
2023/12/16 04:13:58;;;;;;;11.95;11.35;;;;;;;;;;5043291;28;20395;-77
2023/12/16 04:16:28;;;;;;;17.00;15.63;;;;;;;;;;5041766;28;20481;-76
2023/12/16 04:18:58;;;;;;;12.77;11.98;;;;;;;;;;5042015;28;20056;-76
2023/12/16 04:21:37;;;;;;;16.77;15.63;;;;;;;;;;5041815;28;20048;-76
2023/12/16 04:24:09;;;;;;;16.40;15.45;;;;;;;;;;5041774;28;20067;-74
2023/12/16 04:26:39;;;;;;;14.63;13.82;;;;;;;;;;5041491;28;20209;-76
2023/12/16 04:29:09;;;;;;;14.93;13.77;;;;;;;;;;5041529;28;20050;-75
2023/12/16 04:31:40;;;;;;;13.90;12.80;;;;;;;;;;5041852;28;20819;-76
2023/12/16 04:34:11;;;;;;;13.77;13.05;;;;;;;;;;5041867;28;20052;-76
2023/12/16 04:36:44;;;;;;;14.57;13.65;;;;;;;;;;5042087;28;20384;-75
2023/12/16 04:39:14;;;;;;;43.13;40.50;;;;;;;;;;5041463;28;20044;-76
2023/12/16 04:41:47;;;;;;;32.20;30.42;;;;;;;;;;5041713;28;20488;-76
2023/12/16 04:44:18;;;;;;;24.13;22.73;;;;;;;;;;5041624;28;20045;-75
2023/12/16 04:46:48;;;;;;;28.48;26.98;;;;;;;;;;5040623;28;20052;-76
2023/12/16 04:49:19;;;;;;;26.50;24.98;;;;;;;;;;5041547;28;20491;-76
2023/12/16 04:51:50;;;;;;;28.90;27.33;;;;;;;;;;5041800;28;20507;-75
2023/12/16 04:54:20;;;;;;;29.73;28.05;;;;;;;;;;5041259;28;20910;-76
2023/12/16 04:56:51;;;;;;;25.58;24.17;;;;;;;;;;5041122;28;20080;-74
2023/12/16 04:59:21;;;;;;;28.70;27.13;;;;;;;;;;5041561;28;20495;-74
2023/12/16 05:01:52;;;;;;;18.70;17.65;;;;;;;;;;5041466;28;20048;-74
2023/12/16 05:04:22;;;;;;;15.38;14.48;;;;;;;;;;5041001;28;21016;-75
2023/12/16 05:06:53;;;;;;;15.88;14.77;;;;;;;;;;5040709;28;20055;-74
2023/12/16 05:09:24;;;;;;;15.18;14.18;;;;;;;;;;5041640;28;20407;-75
2023/12/16 05:11:55;;;;;;;30.83;29.02;;;;;;;;;;5040970;28;20049;-76
2023/12/16 05:14:25;;;;;;;27.52;26.10;;;;;;;;;;5041249;28;20041;-75
2023/12/16 05:16:56;;;;;;;27.77;26.25;;;;;;;;;;5041893;28;20055;-74
2023/12/16 05:19:26;;;;;;;27.90;26.17;;;;;;;;;;5041134;28;20049;-76
2023/12/16 05:21:57;;;;;;;28.95;27.35;;;;;;;;;;5041359;28;20060;-74
2023/12/16 05:24:27;;;;;;;39.47;37.15;;;;;;;;;;5041313;28;20055;-75
2023/12/16 05:26:58;;;;;;;38.70;36.35;;;;;;;;;;5041180;28;20037;-74
2023/12/16 05:29:28;;;;;;;29.38;27.17;;;;;;;;;;5045643;28;20424;-74
2023/12/16 05:31:58;;;;;;;26.80;25.23;;;;;;;;;;5045362;28;20049;-76
2023/12/16 05:34:29;;;;;;;27.15;25.63;;;;;;;;;;5045053;28;20052;-75
2023/12/16 05:36:59;;;;;;;28.05;26.05;;;;;;;;;;5045286;28;20045;-75
2023/12/16 05:39:31;;;;;;;28.52;26.80;;;;;;;;;;5044359;28;20053;-74
2023/12/16 05:42:02;;;;;;;26.17;24.65;;;;;;;;;;5044798;28;20056;-76
2023/12/16 05:44:32;;;;;;;13.10;12.02;;;;;;;;;;5045499;28;20041;-76
2023/12/16 05:47:04;;;;;;;24.83;23.17;;;;;;;;;;5044771;28;20534;-76
2023/12/16 05:49:37;;;;;;;30.52;28.63;;;;;;;;;;5044853;28;20411;-76
2023/12/16 05:52:08;;;;;;;27.48;25.65;;;;;;;;;;5044712;28;20507;-73
2023/12/16 05:54:38;;;;;;;27.63;25.83;;;;;;;;;;5044849;28;20705;-75
2023/12/16 05:57:09;;;;;;;28.17;26.60;;;;;;;;;;5043229;28;20048;-74
2023/12/16 05:59:40;;;;;;;28.42;26.92;;;;;;;;;;5044961;28;20523;-75
2023/12/16 06:02:12;;;;;;;26.13;24.27;;;;;;;;;;5045647;28;20048;-74
2023/12/16 06:04:42;;;;;;;32.00;29.88;;;;;;;;;;5044622;28;20045;-75
2023/12/16 06:07:13;;;;;;;28.02;26.27;;;;;;;;;;5045191;28;20415;-76
2023/12/16 06:09:44;;;;;;;21.25;19.92;;;;;;;;;;5045165;28;20056;-76
2023/12/16 06:12:16;;;;;;;26.77;24.67;;;;;;;;;;5044518;28;20033;-74
2023/12/16 06:14:46;;;;;;;29.00;26.75;;;;;;;;;;5043837;28;20056;-77
2023/12/16 06:17:17;;;;;;;25.20;23.58;;;;;;;;;;5043999;28;20045;-75
2023/12/16 06:19:48;;;;;;;26.73;24.92;;;;;;;;;;5044367;28;20510;-76
2023/12/16 06:22:20;;;;;;;27.75;26.20;;;;;;;;;;5043721;28;20055;-75
2023/12/16 06:24:50;;;;;;;24.25;22.80;;;;;;;;;;5044287;28;20808;-75
2023/12/16 06:27:21;;;;;;;24.85;23.25;;;;;;;;;;5044418;28;20052;-76
2023/12/16 06:29:51;;;;;;;27.17;25.27;;;;;;;;;;5043924;28;21127;-74
2023/12/16 06:32:22;;;;;;;24.15;22.60;;;;;;;;;;5044079;28;20504;-75
2023/12/16 06:34:52;;;;;;;23.58;21.77;;;;;;;;;;5043829;28;20059;-76
2023/12/16 06:37:22;;;;;;;22.40;20.52;;;;;;;;;;5043814;28;20435;-75
2023/12/16 06:39:54;;;;;;;20.75;19.20;;;;;;;;;;5043516;28;20049;-75
2023/12/16 06:42:25;;;;;;;20.15;18.80;;;;;;;;;;5044693;28;20049;-74
2023/12/16 06:44:56;;;;;;;24.25;22.30;;;;;;;;;;5043946;28;20051;-75
2023/12/16 06:47:27;;;;;;;19.77;18.25;;;;;;;;;;5043880;28;20049;-73
2023/12/16 06:49:57;;;;;;;24.60;22.58;;;;;;;;;;5043755;28;20049;-75
2023/12/16 06:52:29;;;;;;;20.80;19.42;;;;;;;;;;5043586;28;20041;-73
2023/12/16 06:54:59;;;;;;;21.50;19.95;;;;;;;;;;5043268;28;20518;-74
2023/12/16 06:57:30;;;;;;;22.08;20.73;;;;;;;;;;5043975;28;20854;-74
2023/12/16 07:00:00;;;;;;;23.75;22.35;;;;;;;;;;5043487;28;20053;-75
2023/12/16 07:02:31;;;;;;;20.52;19.25;;;;;;;;;;5043236;28;20072;-75
2023/12/16 07:05:01;;;;;;;23.17;21.52;;;;;;;;;;5043181;28;20048;-75
2023/12/16 07:07:31;;;;;;;18.55;17.23;;;;;;;;;;5043544;28;20041;-74
2023/12/16 07:10:01;;;;;;;21.42;19.90;;;;;;;;;;5043413;28;20044;-74
2023/12/16 07:12:31;;;;;;;19.00;17.92;;;;;;;;;;5042388;28;20048;-76
2023/12/16 07:15:02;;;;;;;20.08;18.67;;;;;;;;;;5044500;28;20052;-75
2023/12/16 07:17:33;;;;;;;21.20;19.77;;;;;;;;;;5042963;28;20060;-73
2023/12/16 07:20:05;;;;;;;23.17;21.67;;;;;;;;;;5042303;28;20519;-75
2023/12/16 07:22:36;;;;;;;24.08;22.45;;;;;;;;;;5042543;28;20508;-75
2023/12/16 07:25:07;;;;;;;41.83;39.05;;;;;;;;;;5042690;28;20041;-75
2023/12/16 07:27:38;;;;;;;41.75;38.88;;;;;;;;;;5042814;28;20056;-75
2023/12/16 07:30:09;;;;;;;40.70;38.17;;;;;;;;;;5042502;28;20049;-74
2023/12/16 07:32:40;;;;;;;33.58;31.58;;;;;;;;;;5042436;28;20045;-75
2023/12/16 07:35:13;;;;;;;45.40;42.35;;;;;;;;;;5042442;28;20051;-74
2023/12/16 07:37:44;;;;;;;36.13;33.80;;;;;;;;;;5041095;28;20057;-75
2023/12/16 07:40:14;;;;;;;29.17;27.30;;;;;;;;;;5042873;28;20447;-74
2023/12/16 07:42:44;;;;;;;23.30;21.65;;;;;;;;;;5043161;28;20052;-75
2023/12/16 07:45:15;;;;;;;22.67;21.25;;;;;;;;;;5042546;28;20068;-75
2023/12/16 07:47:46;;;;;;;16.95;15.93;;;;;;;;;;5042512;28;20048;-74
2023/12/16 07:50:20;;;;;;;17.08;15.85;;;;;;;;;;5042064;28;20045;-74
2023/12/16 07:52:50;;;;;;;16.48;15.05;;;;;;;;;;5041682;28;20040;-75
2023/12/16 07:55:21;;;;;;;14.50;13.45;;;;;;;;;;5042690;28;20053;-74
2023/12/16 07:57:53;;;;;;;13.35;12.05;;;;;;;;;;5042167;28;20107;-74
2023/12/16 08:00:23;;;;;;;16.55;15.05;;;;;;;;;;5042320;28;20068;-75
2023/12/16 08:02:54;;;;;;;14.88;12.73;;;;;;;;;;5042468;28;20396;-76
2023/12/16 08:05:25;;;;;;;15.27;14.00;;;;;;;;;;5041934;28;20052;-75
2023/12/16 08:07:56;;;;;;;16.30;12.75;;;;;;;;;;5042450;28;20049;-76
2023/12/16 08:10:26;;;;;;;17.75;16.00;;;;;;;;;;5042371;28;20056;-74
2023/12/16 08:12:57;;;;;;;15.85;14.63;;;;;;;;;;5042288;28;20044;-74
2023/12/16 08:15:27;;;;;;;13.85;12.93;;;;;;;;;;5042268;28;20060;-75
2023/12/16 08:17:58;;;;;;;13.23;12.02;;;;;;;;;;5042502;28;20052;-75
2023/12/16 08:20:29;;;;;;;13.25;11.68;;;;;;;;;;5043074;28;20400;-75
2023/12/16 08:23:00;;;;;;;13.18;12.13;;;;;;;;;;5042056;28;20045;-76
2023/12/16 08:25:30;;;;;;;15.40;10.38;;;;;;;;;;5041908;28;20499;-75
2023/12/16 08:28:01;;;;;;;13.15;11.85;;;;;;;;;;5041946;28;20068;-74
2023/12/16 08:30:31;;;;;;;19.25;14.15;;;;;;;;;;5040500;28;20053;-74
2023/12/16 08:33:02;;;;;;;15.68;14.25;;;;;;;;;;5042455;28;20525;-76
2023/12/16 08:35:35;;;;;;;14.80;13.77;;;;;;;;;;5042062;28;20060;-76
2023/12/16 08:38:06;;;;;;;22.10;20.35;;;;;;;;;;5041641;28;20681;-76
2023/12/16 08:40:36;;;;;;;14.30;12.93;;;;;;;;;;5042006;28;20664;-73
2023/12/16 08:43:06;;;;;;;17.75;16.60;;;;;;;;;;5041560;28;20134;-75
2023/12/16 08:45:37;;;;;;;16.98;14.48;;;;;;;;;;5041697;28;20431;-75
2023/12/16 08:48:10;;;;;;;18.42;17.13;;;;;;;;;;5041778;28;20514;-76
2023/12/16 08:50:42;;;;;;;14.10;13.27;;;;;;;;;;5041995;28;20044;-75
2023/12/16 08:53:12;;;;;;;16.80;12.50;;;;;;;;;;5040968;28;20049;-74
2023/12/16 08:55:42;;;;;;;13.57;12.27;;;;;;;;;;5041824;28;20064;-75
2023/12/16 08:58:13;;;;;;;15.05;12.48;;;;;;;;;;5040767;28;20532;-75
2023/12/16 09:00:45;;;;;;;17.00;15.98;;;;;;;;;;5041374;28;20056;-76
2023/12/16 09:03:15;;;;;;;14.60;13.18;;;;;;;;;;5041228;28;20053;-75
2023/12/16 09:05:47;;;;;;;14.77;13.93;;;;;;;;;;5041953;28;20056;-74
2023/12/16 09:08:17;;;;;;;18.55;17.02;;;;;;;;;;5042237;28;20064;-75
2023/12/16 09:10:48;;;;;;;18.88;17.27;;;;;;;;;;5041595;28;20411;-74
2023/12/16 09:13:19;;;;;;;24.80;23.08;;;;;;;;;;5041090;28;20060;-74
2023/12/16 09:15:49;;;;;;;16.42;15.20;;;;;;;;;;5040843;28;20111;-75
2023/12/16 09:18:19;;;;;;;17.98;16.73;;;;;;;;;;5040645;28;20052;-75
2023/12/16 09:20:50;;;;;;;28.15;26.23;;;;;;;;;;5041395;28;20041;-72
2023/12/16 09:23:20;;;;;;;24.70;23.17;;;;;;;;;;5041612;28;20514;-73
2023/12/16 09:25:53;;;;;;;28.42;26.65;;;;;;;;;;5041348;28;20045;-74
2023/12/16 09:28:23;;;;;;;25.73;23.73;;;;;;;;;;5040975;28;20052;-73
2023/12/16 09:30:53;;;;;;;29.80;27.75;;;;;;;;;;5040897;28;20059;-77
2023/12/16 09:33:23;;;;;;;28.23;26.58;;;;;;;;;;5041129;28;20044;-71
2023/12/16 09:35:54;;;;;;;24.88;23.00;;;;;;;;;;5041392;28;20049;-72
2023/12/16 09:38:25;;;;;;;30.08;28.33;;;;;;;;;;5041114;28;20056;-74
2023/12/16 09:40:56;;;;;;;29.05;27.25;;;;;;;;;;5041296;28;20693;-71
2023/12/16 09:43:28;;;;;;;19.25;18.10;;;;;;;;;;5040663;28;20797;-75
2023/12/16 09:46:00;;;;;;;18.73;17.13;;;;;;;;;;5040748;28;20049;-75
2023/12/16 09:48:30;;;;;;;21.75;20.48;;;;;;;;;;5041155;28;20041;-75
2023/12/16 09:51:01;;;;;;;17.83;16.65;;;;;;;;;;5040666;28;20057;-76
2023/12/16 09:53:31;;;;;;;15.68;14.52;;;;;;;;;;5041813;28;20040;-76
2023/12/16 09:56:01;;;;;;;18.70;17.40;;;;;;;;;;5041170;28;20397;-73
2023/12/16 09:58:37;;;;;;;30.20;28.23;;;;;;;;;;5040876;28;20049;-74
2023/12/16 10:01:09;;;;;;;16.15;15.18;;;;;;;;;;5060698;28;20048;-75
2023/12/16 10:03:40;;;;;;;14.50;13.40;;;;;;;;;;5060515;28;20427;-74
2023/12/16 10:06:11;;;;;;;13.35;12.45;;;;;;;;;;5058974;28;20059;-76
2023/12/16 10:08:42;;;;;;;15.30;13.98;;;;;;;;;;5061088;28;20045;-74
2023/12/16 10:11:15;;;;;;;12.68;11.82;;;;;;;;;;5061161;28;20057;-74
2023/12/16 10:13:56;;;;;;;13.63;12.73;;;;;;;;;;5060662;28;20734;-73
2023/12/16 10:16:26;;;;;;;13.80;12.52;;;;;;;;;;5064726;28;20491;-75
2023/12/16 10:18:58;;;;;;;14.18;13.00;;;;;;;;;;5065119;28;20392;-74
2023/12/16 10:21:31;;;;;;;15.57;14.63;;;;;;;;;;5064453;28;20051;-76
2023/12/16 10:24:02;;;;;;;16.70;15.15;;;;;;;;;;5064482;28;20056;-76
2023/12/16 10:26:34;;;;;;;17.15;15.90;;;;;;;;;;5064120;28;20056;-75
2023/12/16 10:29:04;;;;;;;19.67;18.55;;;;;;;;;;5062225;28;20067;-74
2023/12/16 10:31:35;;;;;;;15.10;13.88;;;;;;;;;;5062426;28;20053;-75
2023/12/16 10:34:05;;;;;;;15.52;14.35;;;;;;;;;;5063539;28;20052;-76
2023/12/16 10:36:35;;;;;;;13.77;12.70;;;;;;;;;;5064588;28;20048;-74
2023/12/16 10:39:07;;;;;;;13.27;12.15;;;;;;;;;;5063532;28;20048;-76
2023/12/16 10:41:39;;;;;;;15.93;14.48;;;;;;;;;;5062124;28;20044;-77
2023/12/16 10:44:09;;;;;;;22.58;21.13;;;;;;;;;;5063359;28;20044;-74
2023/12/16 10:46:41;;;;;;;14.80;13.63;;;;;;;;;;5063830;28;20049;-75
2023/12/16 10:49:16;;;;;;;22.92;21.05;;;;;;;;;;5063113;28;20048;-75
2023/12/16 10:51:52;;;;;;;30.50;28.73;;;;;;;;;;5063198;28;20499;-75
2023/12/16 10:54:32;;;;;;;26.02;24.50;;;;;;;;;;5062614;28;20044;-75
2023/12/16 10:57:22;;;;;;;24.50;22.83;;;;;;;;;;5063240;28;20048;-75
2023/12/16 11:00:06;;;;;;;24.80;22.65;;;;;;;;;;5064198;28;20052;-74
2023/12/16 11:02:47;;;;;;;23.95;22.58;;;;;;;;;;5063404;28;20044;-75
2023/12/16 11:05:34;;;;;;;20.35;19.23;;;;;;;;;;5063456;28;20041;-78
2023/12/16 11:08:05;;;;;;;23.25;21.88;;;;;;;;;;5063060;28;20045;-75
2023/12/16 11:10:36;;;;;;;19.65;18.30;;;;;;;;;;5062992;28;20055;-75
2023/12/16 11:13:08;;;;;;;15.18;14.27;;;;;;;;;;5063356;28;20503;-76
2023/12/16 11:15:39;;;;;;;15.27;14.27;;;;;;;;;;5063081;28;20045;-76
2023/12/16 11:18:19;;;;;;;14.95;13.85;;;;;;;;;;5061428;28;20056;-76
2023/12/16 11:20:54;;;;;;;16.27;15.27;;;;;;;;;;5063391;28;20045;-76
2023/12/16 11:23:28;;;;;;;17.20;15.95;;;;;;;;;;5062732;28;20606;-74
2023/12/16 11:26:02;;;;;;;18.38;16.90;;;;;;;;;;5062180;28;20051;-76
2023/12/16 11:28:33;;;;;;;23.58;22.30;;;;;;;;;;5062777;28;20048;-74
2023/12/16 11:31:04;;;;;;;18.90;17.65;;;;;;;;;;5062829;28;20040;-73
2023/12/16 11:33:44;;;;;;;18.05;16.80;;;;;;;;;;5063269;28;20040;-74
2023/12/16 11:36:15;;;;;;;18.05;16.90;;;;;;;;;;5063136;28;20040;-75
2023/12/16 11:38:47;;;;;;;18.38;16.80;;;;;;;;;;5063028;28;20048;-76
2023/12/16 11:41:35;;;;;;;18.17;16.73;;;;;;;;;;5062954;28;20048;-74
2023/12/16 11:44:08;;;;;;;19.48;18.15;;;;;;;;;;5062172;28;20442;-77
2023/12/16 11:46:42;;;;;;;20.92;19.38;;;;;;;;;;5062593;28;20048;-72
2023/12/16 11:49:16;;;;;;;24.15;22.23;;;;;;;;;;5063206;28;20412;-74
2023/12/16 11:51:47;;;;;;;28.17;26.48;;;;;;;;;;5062407;28;20052;-75
2023/12/16 11:54:18;;;;;;;24.95;23.30;;;;;;;;;;5062300;28;20048;-74
2023/12/16 11:56:49;;;;;;;20.88;19.60;;;;;;;;;;5061552;28;20980;-74
2023/12/16 11:59:19;;;;;;;22.50;20.55;;;;;;;;;;5062125;28;20338;-80
2023/12/16 12:01:53;;;;;;;16.48;15.27;;;;;;;;;;5060604;28;20045;-74
2023/12/16 12:04:24;;;;;;;21.67;20.10;;;;;;;;;;5060613;28;20048;-75
2023/12/16 12:06:55;;;;;;;28.00;26.45;;;;;;;;;;5060607;28;20053;-76
2023/12/16 12:09:25;;;;;;;21.75;20.13;;;;;;;;;;5062195;28;20453;-74
2023/12/16 12:11:57;;;;;;;17.88;16.52;;;;;;;;;;5060959;28;20158;-75
2023/12/16 12:14:29;;;;;;;15.63;14.43;;;;;;;;;;5061997;28;20048;-72
2023/12/16 12:17:02;;;;;;;26.67;25.05;;;;;;;;;;5061588;28;20518;-72
2023/12/16 12:19:34;;;;;;;16.45;15.35;;;;;;;;;;5062272;28;20045;-72
2023/12/16 12:22:06;;;;;;;17.10;16.17;;;;;;;;;;5061888;28;20491;-73
2023/12/16 12:24:37;;;;;;;18.38;17.20;;;;;;;;;;5061772;28;20048;-73
2023/12/16 12:27:08;;;;;;;14.30;13.25;;;;;;;;;;5061685;28;20051;-75
2023/12/16 12:29:58;;;;;;;19.10;17.73;;;;;;;;;;5062066;28;20048;-74
2023/12/16 12:32:31;;;;;;;28.73;26.70;;;;;;;;;;5061783;28;20059;-73
2023/12/16 12:35:11;;;;;;;25.20;23.60;;;;;;;;;;5060642;28;20051;-73
2023/12/16 12:37:49;;;;;;;21.85;20.02;;;;;;;;;;5061138;28;20044;-75
2023/12/16 12:40:19;;;;;;;16.58;15.50;;;;;;;;;;5062254;28;20048;-75
2023/12/16 12:42:54;;;;;;;21.73;20.02;;;;;;;;;;5062187;28;20051;-75
2023/12/16 12:45:24;;;;;;;12.23;11.38;;;;;;;;;;5061577;28;20051;-72
2023/12/16 12:47:56;;;;;;;10.70;9.98;;;;;;;;;;5062047;28;20048;-73
2023/12/16 12:50:27;;;;;;;11.27;10.07;;;;;;;;;;5061132;28;20059;-72
2023/12/16 12:52:57;;;;;;;17.52;16.23;;;;;;;;;;5061129;28;20048;-73
2023/12/16 12:55:49;;;;;;;16.38;14.75;;;;;;;;;;5062121;28;20041;-73
2023/12/16 12:58:19;;;;;;;18.70;17.40;;;;;;;;;;5061985;28;20041;-75
2023/12/16 13:01:03;;;;;;;17.60;16.50;;;;;;;;;;5061975;28;20061;-73
2023/12/16 13:03:38;;;;;;;19.83;18.63;;;;;;;;;;5061973;28;20079;-73
2023/12/16 13:06:09;;;;;;;20.77;19.60;;;;;;;;;;5059993;28;20055;-73
2023/12/16 13:08:40;;;;;;;24.67;23.05;;;;;;;;;;5061293;28;20044;-73
2023/12/16 13:11:10;;;;;;;17.83;16.73;;;;;;;;;;5061769;28;20064;-72
2023/12/16 13:13:42;;;;;;;25.00;23.25;;;;;;;;;;5061549;28;20724;-72
2023/12/16 13:16:13;;;;;;;23.67;21.80;;;;;;;;;;5061889;28;20048;-74
2023/12/16 13:18:45;;;;;;;27.15;25.58;;;;;;;;;;5061209;28;20055;-74
2023/12/16 13:21:16;;;;;;;22.95;21.50;;;;;;;;;;5061458;28;20095;-74
2023/12/16 13:23:47;;;;;;;29.17;27.20;;;;;;;;;;5060043;28;20053;-75
2023/12/16 13:26:19;;;;;;;21.23;19.50;;;;;;;;;;5060843;28;20044;-74
2023/12/16 13:28:50;;;;;;;29.88;28.00;;;;;;;;;;5061078;28;20052;-74
2023/12/16 13:31:20;;;;;;;22.15;20.75;;;;;;;;;;5061750;28;20609;-82
2023/12/16 13:33:51;;;;;;;23.25;21.88;;;;;;;;;;5061367;28;20231;-75
2023/12/16 13:36:24;;;;;;;24.27;22.63;;;;;;;;;;5060621;28;20067;-75
2023/12/16 13:39:16;;;;;;;28.25;26.58;;;;;;;;;;5061274;28;20052;-75
2023/12/16 13:41:46;;;;;;;20.42;18.90;;;;;;;;;;5061004;28;20044;-74
2023/12/16 13:44:16;;;;;;;28.98;27.27;;;;;;;;;;5061212;28;20052;-73
2023/12/16 13:46:46;;;;;;;16.90;15.77;;;;;;;;;;5060317;28;20048;-74
2023/12/16 13:49:17;;;;;;;21.42;20.00;;;;;;;;;;5060521;28;20056;-74
2023/12/16 13:51:47;;;;;;;15.52;14.63;;;;;;;;;;5064658;28;20397;-75
2023/12/16 13:54:18;;;;;;;12.18;11.48;;;;;;;;;;5064898;28;20052;-74
2023/12/16 13:56:49;;;;;;;13.10;12.00;;;;;;;;;;5064492;28;20060;-75
2023/12/16 13:59:20;;;;;;;12.30;11.30;;;;;;;;;;5064624;28;20049;-74
2023/12/16 14:01:51;;;;;;;20.63;19.33;;;;;;;;;;5064558;28;20064;-74
2023/12/16 14:04:21;;;;;;;14.35;13.30;;;;;;;;;;5064835;28;20506;-77
2023/12/16 14:06:52;;;;;;;11.90;11.05;;;;;;;;;;5064864;28;20052;-74
2023/12/16 14:09:23;;;;;;;16.50;15.43;;;;;;;;;;5064120;28;20045;-75
2023/12/16 14:11:53;;;;;;;17.92;16.60;;;;;;;;;;5064196;28;20041;-73
2023/12/16 14:14:24;;;;;;;16.50;15.18;;;;;;;;;;5064521;28;20052;-75
2023/12/16 14:16:55;;;;;;;13.27;10.52;;;;;;;;;;5064095;28;20061;-75
2023/12/16 14:19:25;;;;;;;10.85;10.02;;;;;;;;;;5064405;28;20680;-74
2023/12/16 14:21:57;;;;;;;12.43;11.23;;;;;;;;;;5064199;28;20048;-74
2023/12/16 14:24:27;;;;;;;14.93;13.68;;;;;;;;;;5064259;28;20071;-74
2023/12/16 14:26:58;;;;;;;13.02;11.93;;;;;;;;;;5064413;28;20044;-74
2023/12/16 14:29:29;;;;;;;11.60;10.77;;;;;;;;;;5064600;28;20414;-75
2023/12/16 14:32:00;;;;;;;10.75;10.05;;;;;;;;;;5063999;28;20507;-74
2023/12/16 14:34:31;;;;;;;15.15;13.63;;;;;;;;;;5064059;28;20044;-74
2023/12/16 14:37:01;;;;;;;15.15;14.27;;;;;;;;;;5064438;28;20060;-75
2023/12/16 14:39:31;;;;;;;18.33;17.02;;;;;;;;;;5063748;28;20040;-75
2023/12/16 14:42:01;;;;;;;14.77;13.43;;;;;;;;;;5063868;28;20060;-74